Miami, Florida
Traffic Map
Current Weather Conditions
Miami, Florida
Few Clouds
Few Clouds
14°
Feels Like: 14°
Wind Chill: 14° Ceiling: Unl
Heat Index: 14° Visibility: 10mi
Dew Point: Wind: 9mph
Humidity: 74% Direction: 340° (NNW)
Pressure: 30.2in Gusts: 0mph
Raw Report DataKMIA 290453Z 34008KT 10SM FEW047 14/09 A3020 RMK AO2 SLP225 T01390094 402170117
Traffic Incident Summary
Active as of:
Severity:
Category:
InformationThere was an issue retrieving the traffic information for this location. Please try a different location or try again shortly.
Advertisements
Track Severe Weather on mobile